createdAt,value
2022-08-20T06:44:52.896Z,25.67
2022-08-20T06:47:30.758Z,25.68
2022-08-20T06:50:10.619Z,25.70
2022-08-20T06:52:51.914Z,25.72
2022-08-20T06:55:30.957Z,25.74
2022-08-20T06:58:22.236Z,25.77
2022-08-20T07:01:14.125Z,25.73
2022-08-20T07:03:55.621Z,25.75
2022-08-20T07:06:33.297Z,25.72
2022-08-20T07:09:10.697Z,25.73
2022-08-20T07:11:48.796Z,25.76
2022-08-20T07:14:27.473Z,25.79
2022-08-20T07:17:11.374Z,25.82
2022-08-20T07:19:50.147Z,25.82
2022-08-20T07:22:27.597Z,25.76
2022-08-20T07:25:05.040Z,25.80
2022-08-20T07:27:42.467Z,25.77
2022-08-20T07:30:56.041Z,25.75
2022-08-20T07:33:36.168Z,25.71
2022-08-20T07:36:15.228Z,25.71
2022-08-20T07:38:53.076Z,25.67
2022-08-20T07:41:30.782Z,25.66
2022-08-20T07:44:08.104Z,25.63
2022-08-20T07:46:45.337Z,25.63
2022-08-20T07:49:24.835Z,25.63
2022-08-20T07:52:02.056Z,25.60
2022-08-20T07:54:39.766Z,25.55
2022-08-20T07:57:17.924Z,25.52
2022-08-20T07:59:54.861Z,25.51
2022-08-20T08:02:32.363Z,25.51
2022-08-20T08:05:13.609Z,25.53
2022-08-20T08:07:51.137Z,25.52
2022-08-20T08:10:28.676Z,25.49
2022-08-20T08:13:12.556Z,25.63
2022-08-20T08:15:53.756Z,25.70
2022-08-20T08:18:41.197Z,25.80
2022-08-20T08:21:21.345Z,25.87
2022-08-20T08:23:58.776Z,25.89
2022-08-20T08:26:35.775Z,25.93
2022-08-20T08:29:12.995Z,25.97
2022-08-20T08:31:50.043Z,25.97
2022-08-20T08:34:27.526Z,26.03
2022-08-20T08:37:08.056Z,26.05
2022-08-20T08:39:45.501Z,26.07
2022-08-20T08:42:32.087Z,26.07
2022-08-20T08:45:11.565Z,26.16
2022-08-20T08:47:49.105Z,26.14
2022-08-20T08:50:53.561Z,26.15
2022-08-20T08:53:39.806Z,26.17
2022-08-20T08:56:18.634Z,26.21
2022-08-20T08:58:55.934Z,26.26
2022-08-20T09:01:54.581Z,26.29
2022-08-20T09:04:37.645Z,26.36
2022-08-20T09:07:19.643Z,26.41
2022-08-20T09:09:59.324Z,26.44
2022-08-20T09:12:36.481Z,26.49
2022-08-20T09:15:14.199Z,26.57
2022-08-20T09:17:53.162Z,26.62
2022-08-20T09:20:30.504Z,26.66
2022-08-20T09:23:09.957Z,26.70
2022-08-20T09:25:49.747Z,26.69
2022-08-20T09:28:32.515Z,26.67
2022-08-20T09:31:12.298Z,26.67
2022-08-20T09:33:50.412Z,26.77
2022-08-20T09:36:30.709Z,26.76
2022-08-20T09:39:10.350Z,26.83
2022-08-20T09:41:49.786Z,26.85
2022-08-20T09:44:27.179Z,26.90
2022-08-20T09:47:04.039Z,27.00
2022-08-20T09:49:41.539Z,27.11
2022-08-20T09:52:26.619Z,27.22
2022-08-20T09:55:07.230Z,27.21
2022-08-20T09:57:46.788Z,27.32
2022-08-20T10:00:24.831Z,27.45
2022-08-20T10:03:03.898Z,27.52
2022-08-20T10:05:41.179Z,27.65
2022-08-20T10:08:18.649Z,27.61
2022-08-20T10:10:56.012Z,27.67
2022-08-20T10:13:35.418Z,27.78
2022-08-20T10:16:12.750Z,27.77
2022-08-20T10:18:49.648Z,27.84
2022-08-20T10:21:26.862Z,27.94
2022-08-20T10:24:03.910Z,28.06
2022-08-20T10:26:42.651Z,28.08
2022-08-20T10:29:22.130Z,28.16
2022-08-20T10:32:00.134Z,28.26
2022-08-20T10:34:37.207Z,28.36
2022-08-20T10:37:17.441Z,28.49
2022-08-20T10:39:54.637Z,28.64
2022-08-20T10:42:31.849Z,28.77
2022-08-20T10:45:13.421Z,28.92
2022-08-20T10:47:50.792Z,29.11
2022-08-20T10:50:30.261Z,29.41
2022-08-20T10:53:08.135Z,29.63
2022-08-20T10:55:44.945Z,29.69
2022-08-20T10:58:23.994Z,29.90
2022-08-20T11:01:03.684Z,30.09
2022-08-20T11:03:40.982Z,30.34
2022-08-20T11:06:17.991Z,30.55
2022-08-20T11:08:56.929Z,30.75
2022-08-20T11:11:34.104Z,30.91
2022-08-20T11:14:11.430Z,31.05
2022-08-20T11:16:51.060Z,31.07
2022-08-20T11:19:28.200Z,30.90
2022-08-20T11:22:05.130Z,30.70
2022-08-20T11:24:42.588Z,30.61
2022-08-20T11:27:28.899Z,30.61
2022-08-20T11:30:06.222Z,30.51
2022-08-20T11:32:45.593Z,30.40
2022-08-20T11:35:42.203Z,30.56
2022-08-20T11:38:21.782Z,30.60
2022-08-20T11:40:59.022Z,30.70
2022-08-20T11:43:35.824Z,30.81
2022-08-20T11:46:13.243Z,30.91
2022-08-20T11:48:52.790Z,31.13
2022-08-20T11:51:30.034Z,31.25
2022-08-20T11:54:11.654Z,31.30
2022-08-20T11:56:49.875Z,31.35
2022-08-20T11:59:26.895Z,31.35
2022-08-20T12:02:06.080Z,31.17
2022-08-20T12:04:47.894Z,31.07
2022-08-20T12:07:27.516Z,30.87
2022-08-20T12:10:04.465Z,30.77
2022-08-20T12:12:42.204Z,30.68
2022-08-20T12:15:19.323Z,30.58
2022-08-20T12:17:56.634Z,30.44
2022-08-20T12:20:36.193Z,30.17
2022-08-20T12:23:13.325Z,29.91
2022-08-20T12:25:50.119Z,29.83
2022-08-20T12:28:27.556Z,29.77
2022-08-20T12:31:04.495Z,29.72
2022-08-20T12:33:41.758Z,29.59
2022-08-20T12:36:21.395Z,29.42
2022-08-20T12:38:58.596Z,29.22
2022-08-20T12:41:35.526Z,28.98
2022-08-20T12:44:13.327Z,28.77
2022-08-20T12:46:50.482Z,28.60
2022-08-20T12:49:27.622Z,28.31
2022-08-20T12:52:08.315Z,28.13
2022-08-20T12:54:45.981Z,28.01
2022-08-20T12:57:30.454Z,27.89
2022-08-20T13:00:14.971Z,27.72
2022-08-20T13:02:53.239Z,27.61
2022-08-20T13:05:31.821Z,27.53
2022-08-20T13:08:14.835Z,27.43
2022-08-20T13:10:52.231Z,27.30
2022-08-20T13:13:29.178Z,27.21
2022-08-20T13:16:06.726Z,27.14
2022-08-20T13:18:43.638Z,27.10
2022-08-20T13:21:23.910Z,27.03
2022-08-20T13:24:03.910Z,26.97
2022-08-20T13:26:41.009Z,26.92
2022-08-20T13:29:19.690Z,26.85
2022-08-20T13:31:56.892Z,26.79
2022-08-20T13:34:33.850Z,26.69
2022-08-20T13:37:16.910Z,26.62
2022-08-20T13:39:57.023Z,26.47
2022-08-20T13:42:34.298Z,26.39
2022-08-20T13:45:12.978Z,26.33
2022-08-20T13:47:50.364Z,26.21
2022-08-20T13:50:29.138Z,26.14
2022-08-20T13:53:07.590Z,26.11
2022-08-20T13:55:47.593Z,26.05
2022-08-20T13:58:25.611Z,26.04
2022-08-20T14:01:02.678Z,26.03
2022-08-20T14:03:39.843Z,26.04
2022-08-20T14:06:19.550Z,26.04
2022-08-20T14:08:56.719Z,26.05
2022-08-20T14:11:36.474Z,26.01
2022-08-20T14:14:13.592Z,25.94
2022-08-20T14:16:50.452Z,25.93
2022-08-20T14:19:27.691Z,25.92
2022-08-20T14:22:04.548Z,25.91
2022-08-20T14:24:41.722Z,25.92
2022-08-20T14:27:29.066Z,25.92
2022-08-20T14:30:11.923Z,25.90
2022-08-20T14:32:48.772Z,25.86
2022-08-20T14:35:26.451Z,25.80
2022-08-20T14:38:05.326Z,25.78
2022-08-20T14:40:42.864Z,25.76
2022-08-20T14:43:22.628Z,25.81
2022-08-20T14:45:59.663Z,25.84
2022-08-20T14:48:36.410Z,25.84
2022-08-20T14:51:13.529Z,25.82
2022-08-20T14:53:51.449Z,25.80
2022-08-20T14:56:28.540Z,25.78
2022-08-20T14:59:07.861Z,25.74
2022-08-20T15:01:45.018Z,25.74
2022-08-20T15:04:23.597Z,25.75
2022-08-20T15:07:08.178Z,25.77
2022-08-20T15:09:48.890Z,25.82
2022-08-20T15:12:28.343Z,25.83
2022-08-20T15:15:15.534Z,25.88
2022-08-20T15:17:56.959Z,25.91
2022-08-20T15:20:37.228Z,25.97
2022-08-20T15:23:15.927Z,26.00
2022-08-20T15:25:52.972Z,26.01
2022-08-20T15:28:30.253Z,26.01
2022-08-20T15:31:14.256Z,26.01
2022-08-20T15:33:51.613Z,25.97
2022-08-20T15:36:28.702Z,25.93
2022-08-20T15:39:05.952Z,25.91
2022-08-20T15:41:42.842Z,25.88
2022-08-20T15:44:20.011Z,25.88
2022-08-20T15:46:59.350Z,25.92
2022-08-20T15:49:36.527Z,25.91
2022-08-20T15:52:13.837Z,25.94
2022-08-20T15:54:54.989Z,25.99
2022-08-20T15:57:50.453Z,26.02
2022-08-20T16:00:32.633Z,26.02
2022-08-20T16:03:57.369Z,26.03
2022-08-20T16:06:37.009Z,26.01
2022-08-20T16:09:41.586Z,26.05
2022-08-20T16:12:27.828Z,26.10
2022-08-20T16:15:12.015Z,26.17
2022-08-20T16:17:55.521Z,26.34
2022-08-20T16:20:41.688Z,26.45
2022-08-20T16:23:24.737Z,26.54
2022-08-20T16:26:15.887Z,26.61
2022-08-20T16:29:11.408Z,26.65
2022-08-20T16:31:53.047Z,26.68
2022-08-20T16:34:39.770Z,26.67
2022-08-20T16:37:28.517Z,26.67
2022-08-20T16:40:25.447Z,26.63
2022-08-20T16:43:08.557Z,26.49
2022-08-20T16:45:55.676Z,26.40
2022-08-20T16:48:42.762Z,26.32
2022-08-20T16:51:25.753Z,26.25
2022-08-20T16:54:05.816Z,26.16
2022-08-20T16:56:46.483Z,26.09
2022-08-20T16:59:27.134Z,25.98
2022-08-20T17:02:10.516Z,25.90
2022-08-20T17:04:59.348Z,25.80
2022-08-20T17:07:51.408Z,25.71
2022-08-20T17:10:37.852Z,25.64
2022-08-20T17:13:28.334Z,25.59
2022-08-20T17:16:11.347Z,25.52
2022-08-20T17:18:51.584Z,25.46
2022-08-20T17:21:33.859Z,25.41
2022-08-20T17:24:16.986Z,25.39
2022-08-20T17:27:02.923Z,25.33
2022-08-20T17:29:55.511Z,25.25
2022-08-20T17:32:33.298Z,25.19
2022-08-20T17:35:12.293Z,25.15
2022-08-20T17:37:55.667Z,25.12
2022-08-20T17:40:41.815Z,25.07
2022-08-20T17:43:33.257Z,25.04
2022-08-20T17:46:18.824Z,25.04
2022-08-20T17:48:57.936Z,24.99
2022-08-20T17:51:50.278Z,24.98
2022-08-20T17:54:33.150Z,24.95
2022-08-20T17:57:15.561Z,24.89
2022-08-20T18:00:02.806Z,24.89
2022-08-20T18:02:42.181Z,24.86
2022-08-20T18:05:23.381Z,24.85
2022-08-20T18:08:32.256Z,24.81
2022-08-20T18:11:21.877Z,24.76
2022-08-20T18:14:41.972Z,24.72
2022-08-20T18:18:03.287Z,24.68
2022-08-20T18:21:23.884Z,24.68
2022-08-20T18:24:08.974Z,24.61
2022-08-20T18:26:52.484Z,24.60
2022-08-20T18:29:36.573Z,24.57
2022-08-20T18:32:37.788Z,24.57
2022-08-20T18:35:22.105Z,24.49
2022-08-20T18:37:59.295Z,24.46
2022-08-20T18:40:39.358Z,24.43
2022-08-20T18:43:30.738Z,24.37
2022-08-20T18:46:22.427Z,24.35
2022-08-20T18:49:07.015Z,24.31
2022-08-20T18:51:52.932Z,24.24
2022-08-20T18:54:34.164Z,24.23
2022-08-20T18:57:24.394Z,24.20
